Rocklin, CA

4:26 AM PDT on July 24, 2016 (GMT -0700)
Brace Road | | Change Station

Elev 399 ft 38.81 °N, 121.20 °W | Updated 4 days ago

Clear
Clear
70 °F
Feels Like 70 °F
N
5
Wind Variable Wind from SE
Gusts mph

Today
High -- | Low -- °F
--% Chance of Precip.
Yesterday
High -- | Low -- °F
Precip. -- in
Pressure 29.87 in
Visibility 10.0 miles
Clouds Clear
Dew Point 47 °F
Humidity 44%
Rainfall in
Snow Depth Not available.
5:59 AM 8:22 PM
Waning Gibbous, 77% visible
METAR KAUN 241115Z AUTO 10006KT 10SM CLR 22/04 A2987 RMK AO1
Pressure 29.87 in
Visibility 10.0 miles
Clouds Clear
Dew Point 47 °F
Humidity 44%
Rainfall in
Snow Depth Not available.
5:59 AM 8:22 PM
Waning Gibbous, 77% visible
METAR KAUN 241115Z AUTO 10006KT 10SM CLR 22/04 A2987 RMK AO1

10-Day Weather Forecast

Almanac

Astronomy

Jul. 24, 2016 Rise Set
Actual Time
Civil Twilight
Nautical Twilight
Astronomical Twilight
Moon
Length of Visible Light
Length of Day
Tomorrow will be .
, % of the Moon is Illuminated

Today's Extremes

State Highs State Lows

Community

WunderPhotos

Upload Photos

1,927,048 photos uploaded!

WunderBlog® & News

Nearby

Air Quality

  Air Quality AQ Index Pollutant
Not available.

Snow Depth

Station Depth Elevation

Earthquake Activity

City Distance Mag. Time & Date
Minimum magnitude displayed is 2.5.

Coastal Water Temperatures

Place Temperature

Stations

Nearby Weather Stations

Station Location Temp. Windchill Dew Point Humidity Wind Precip. Elev Updated Type
                   

Watches & Warnings

There are currently no watches in effect.